sensor_id;sensor_type;location;lat;lon;timestamp;P1;durP1;ratioP1;P2;durP2;ratioP2
68089;SDS011;54880;50.986;6.990;2023-05-16T00:01:03;13.37;;;5.30;;
68089;SDS011;54880;50.986;6.990;2023-05-16T00:03:28;12.97;;;4.47;;
68089;SDS011;54880;50.986;6.990;2023-05-16T00:05:54;13.05;;;4.80;;
68089;SDS011;54880;50.986;6.990;2023-05-16T00:08:20;12.47;;;4.80;;
68089;SDS011;54880;50.986;6.990;2023-05-16T00:10:45;12.80;;;4.70;;
68089;SDS011;54880;50.986;6.990;2023-05-16T00:13:10;13.77;;;4.57;;
68089;SDS011;54880;50.986;6.990;2023-05-16T00:15:36;9.47;;;4.60;;
68089;SDS011;54880;50.986;6.990;2023-05-16T00:18:02;14.93;;;4.70;;
68089;SDS011;54880;50.986;6.990;2023-05-16T00:20:27;10.30;;;4.27;;
68089;SDS011;54880;50.986;6.990;2023-05-16T00:22:54;10.98;;;4.72;;
68089;SDS011;54880;50.986;6.990;2023-05-16T00:25:19;13.10;;;5.13;;
68089;SDS011;54880;50.986;6.990;2023-05-16T00:27:44;11.03;;;4.53;;
68089;SDS011;54880;50.986;6.990;2023-05-16T00:30:10;10.87;;;4.80;;
68089;SDS011;54880;50.986;6.990;2023-05-16T00:32:35;12.70;;;4.73;;
68089;SDS011;54880;50.986;6.990;2023-05-16T00:35:01;11.00;;;5.00;;
68089;SDS011;54880;50.986;6.990;2023-05-16T00:37:26;11.43;;;5.20;;
68089;SDS011;54880;50.986;6.990;2023-05-16T00:39:52;9.25;;;3.90;;
68089;SDS011;54880;50.986;6.990;2023-05-16T00:42:18;10.97;;;5.13;;
68089;SDS011;54880;50.986;6.990;2023-05-16T00:44:43;13.00;;;5.47;;
68089;SDS011;54880;50.986;6.990;2023-05-16T00:47:09;13.50;;;5.97;;
68089;SDS011;54880;50.986;6.990;2023-05-16T00:49:34;13.87;;;7.30;;
68089;SDS011;54880;50.986;6.990;2023-05-16T00:51:59;15.90;;;8.33;;
68089;SDS011;54880;50.986;6.990;2023-05-16T00:54:25;16.95;;;8.93;;
68089;SDS011;54880;50.986;6.990;2023-05-16T00:56:52;19.85;;;10.02;;
68089;SDS011;54880;50.986;6.990;2023-05-16T00:59:18;18.67;;;9.77;;
68089;SDS011;54880;50.986;6.990;2023-05-16T01:01:47;17.70;;;9.55;;
68089;SDS011;54880;50.986;6.990;2023-05-16T01:04:12;21.23;;;10.43;;
68089;SDS011;54880;50.986;6.990;2023-05-16T01:06:38;17.20;;;9.60;;
68089;SDS011;54880;50.986;6.990;2023-05-16T01:09:04;15.60;;;7.30;;
68089;SDS011;54880;50.986;6.990;2023-05-16T01:11:35;11.98;;;5.07;;
68089;SDS011;54880;50.986;6.990;2023-05-16T01:14:11;10.77;;;4.97;;
68089;SDS011;54880;50.986;6.990;2023-05-16T01:16:45;11.93;;;5.47;;
68089;SDS011;54880;50.986;6.990;2023-05-16T01:19:20;9.87;;;4.27;;
68089;SDS011;54880;50.986;6.990;2023-05-16T01:22:05;10.23;;;4.32;;
68089;SDS011;54880;50.986;6.990;2023-05-16T01:24:40;9.65;;;4.82;;
68089;SDS011;54880;50.986;6.990;2023-05-16T01:27:08;11.50;;;5.05;;
68089;SDS011;54880;50.986;6.990;2023-05-16T01:29:34;12.88;;;6.60;;
68089;SDS011;54880;50.986;6.990;2023-05-16T01:32:00;14.50;;;7.50;;
68089;SDS011;54880;50.986;6.990;2023-05-16T01:34:25;16.97;;;7.40;;
68089;SDS011;54880;50.986;6.990;2023-05-16T01:37:13;17.17;;;7.43;;
68089;SDS011;54880;50.986;6.990;2023-05-16T01:39:56;18.42;;;9.35;;
68089;SDS011;54880;50.986;6.990;2023-05-16T01:42:22;19.97;;;9.90;;
68089;SDS011;54880;50.986;6.990;2023-05-16T01:47:18;20.50;;;10.38;;
68089;SDS011;54880;50.986;6.990;2023-05-16T01:52:40;22.38;;;10.73;;
68089;SDS011;54880;50.986;6.990;2023-05-16T01:55:02;21.47;;;10.27;;
68089;SDS011;54880;50.986;6.990;2023-05-16T01:57:28;20.33;;;10.57;;
68089;SDS011;54880;50.986;6.990;2023-05-16T01:59:56;17.35;;;9.32;;
68089;SDS011;54880;50.986;6.990;2023-05-16T02:02:21;16.83;;;8.60;;
68089;SDS011;54880;50.986;6.990;2023-05-16T02:04:46;16.77;;;8.50;;
68089;SDS011;54880;50.986;6.990;2023-05-16T02:07:13;14.20;;;7.50;;
68089;SDS011;54880;50.986;6.990;2023-05-16T02:09:39;13.57;;;7.23;;
68089;SDS011;54880;50.986;6.990;2023-05-16T02:12:05;16.83;;;7.63;;
68089;SDS011;54880;50.986;6.990;2023-05-16T02:14:31;15.75;;;7.80;;
68089;SDS011;54880;50.986;6.990;2023-05-16T02:16:56;18.40;;;8.77;;
68089;SDS011;54880;50.986;6.990;2023-05-16T02:19:21;17.50;;;8.57;;
68089;SDS011;54880;50.986;6.990;2023-05-16T02:21:47;19.83;;;9.40;;
68089;SDS011;54880;50.986;6.990;2023-05-16T02:24:12;16.30;;;8.30;;
68089;SDS011;54880;50.986;6.990;2023-05-16T02:26:37;13.07;;;6.07;;
68089;SDS011;54880;50.986;6.990;2023-05-16T02:29:02;13.07;;;6.47;;
68089;SDS011;54880;50.986;6.990;2023-05-16T02:31:28;15.20;;;6.90;;
68089;SDS011;54880;50.986;6.990;2023-05-16T02:33:54;15.88;;;7.20;;
68089;SDS011;54880;50.986;6.990;2023-05-16T02:36:19;16.03;;;6.10;;
68089;SDS011;54880;50.986;6.990;2023-05-16T02:38:45;17.30;;;5.50;;
68089;SDS011;54880;50.986;6.990;2023-05-16T02:41:11;12.93;;;4.32;;
68089;SDS011;54880;50.986;6.990;2023-05-16T02:43:36;11.63;;;3.83;;
68089;SDS011;54880;50.986;6.990;2023-05-16T02:46:03;14.83;;;4.60;;
68089;SDS011;54880;50.986;6.990;2023-05-16T02:48:28;12.70;;;4.30;;
68089;SDS011;54880;50.986;6.990;2023-05-16T02:50:54;9.80;;;3.10;;
68089;SDS011;54880;50.986;6.990;2023-05-16T02:53:19;10.90;;;4.00;;
68089;SDS011;54880;50.986;6.990;2023-05-16T02:55:45;8.83;;;4.10;;
68089;SDS011;54880;50.986;6.990;2023-05-16T02:58:11;11.45;;;4.30;;
68089;SDS011;54880;50.986;6.990;2023-05-16T03:00:36;12.50;;;3.17;;
68089;SDS011;54880;50.986;6.990;2023-05-16T03:03:02;14.40;;;3.70;;
68089;SDS011;54880;50.986;6.990;2023-05-16T03:05:28;13.85;;;3.53;;
68089;SDS011;54880;50.986;6.990;2023-05-16T03:07:53;13.77;;;3.53;;
68089;SDS011;54880;50.986;6.990;2023-05-16T03:10:18;13.33;;;3.60;;
68089;SDS011;54880;50.986;6.990;2023-05-16T03:12:44;13.57;;;4.23;;
68089;SDS011;54880;50.986;6.990;2023-05-16T03:15:11;14.63;;;3.08;;
68089;SDS011;54880;50.986;6.990;2023-05-16T03:17:36;13.87;;;3.37;;
68089;SDS011;54880;50.986;6.990;2023-05-16T03:20:01;17.93;;;3.90;;
68089;SDS011;54880;50.986;6.990;2023-05-16T03:22:28;16.55;;;3.85;;
68089;SDS011;54880;50.986;6.990;2023-05-16T03:24:53;13.70;;;4.00;;
68089;SDS011;54880;50.986;6.990;2023-05-16T03:27:18;15.10;;;4.00;;
68089;SDS011;54880;50.986;6.990;2023-05-16T03:29:43;16.30;;;3.80;;
68089;SDS011;54880;50.986;6.990;2023-05-16T03:32:09;14.63;;;4.13;;
68089;SDS011;54880;50.986;6.990;2023-05-16T03:34:35;14.90;;;4.25;;
68089;SDS011;54880;50.986;6.990;2023-05-16T03:37:00;15.77;;;3.90;;
68089;SDS011;54880;50.986;6.990;2023-05-16T03:39:26;14.10;;;3.97;;
68089;SDS011;54880;50.986;6.990;2023-05-16T03:41:52;15.93;;;3.78;;
68089;SDS011;54880;50.986;6.990;2023-05-16T03:44:20;21.00;;;3.60;;
68089;SDS011;54880;50.986;6.990;2023-05-16T03:46:45;18.97;;;3.83;;
68089;SDS011;54880;50.986;6.990;2023-05-16T03:49:10;11.57;;;3.13;;
68089;SDS011;54880;50.986;6.990;2023-05-16T03:51:35;17.10;;;3.70;;
68089;SDS011;54880;50.986;6.990;2023-05-16T03:54:01;17.50;;;3.70;;
68089;SDS011;54880;50.986;6.990;2023-05-16T03:56:26;10.40;;;3.37;;
68089;SDS011;54880;50.986;6.990;2023-05-16T03:58:51;15.70;;;4.13;;
68089;SDS011;54880;50.986;6.990;2023-05-16T04:01:16;16.50;;;3.93;;
68089;SDS011;54880;50.986;6.990;2023-05-16T04:03:42;21.93;;;3.60;;
68089;SDS011;54880;50.986;6.990;2023-05-16T04:06:07;14.87;;;3.40;;
68089;SDS011;54880;50.986;6.990;2023-05-16T04:08:32;15.27;;;3.65;;
68089;SDS011;54880;50.986;6.990;2023-05-16T04:10:57;17.90;;;3.50;;
68089;SDS011;54880;50.986;6.990;2023-05-16T04:13:23;15.67;;;3.73;;
68089;SDS011;54880;50.986;6.990;2023-05-16T04:15:49;15.60;;;2.93;;
68089;SDS011;54880;50.986;6.990;2023-05-16T04:18:14;18.33;;;3.83;;
68089;SDS011;54880;50.986;6.990;2023-05-16T04:20:43;13.70;;;3.55;;
68089;SDS011;54880;50.986;6.990;2023-05-16T04:23:08;17.17;;;3.60;;
68089;SDS011;54880;50.986;6.990;2023-05-16T04:25:36;18.67;;;4.28;;
68089;SDS011;54880;50.986;6.990;2023-05-16T04:28:01;17.23;;;3.27;;
68089;SDS011;54880;50.986;6.990;2023-05-16T04:30:26;14.93;;;3.30;;
68089;SDS011;54880;50.986;6.990;2023-05-16T04:32:52;12.82;;;3.53;;
68089;SDS011;54880;50.986;6.990;2023-05-16T04:35:17;15.38;;;3.50;;
68089;SDS011;54880;50.986;6.990;2023-05-16T04:37:42;16.77;;;3.90;;
68089;SDS011;54880;50.986;6.990;2023-05-16T04:40:08;14.50;;;3.33;;
68089;SDS011;54880;50.986;6.990;2023-05-16T04:42:33;16.23;;;3.43;;
68089;SDS011;54880;50.986;6.990;2023-05-16T04:44:59;19.20;;;3.70;;
68089;SDS011;54880;50.986;6.990;2023-05-16T04:47:25;15.07;;;3.40;;
68089;SDS011;54880;50.986;6.990;2023-05-16T04:49:50;20.73;;;4.67;;
68089;SDS011;54880;50.986;6.990;2023-05-16T04:52:15;16.00;;;3.20;;
68089;SDS011;54880;50.986;6.990;2023-05-16T04:54:40;12.67;;;2.87;;
68089;SDS011;54880;50.986;6.990;2023-05-16T04:57:06;16.88;;;3.40;;
68089;SDS011;54880;50.986;6.990;2023-05-16T04:59:31;17.48;;;3.80;;
68089;SDS011;54880;50.986;6.990;2023-05-16T05:01:57;16.90;;;3.40;;
68089;SDS011;54880;50.986;6.990;2023-05-16T05:04:22;16.43;;;3.70;;
68089;SDS011;54880;50.986;6.990;2023-05-16T05:06:47;15.20;;;3.30;;
68089;SDS011;54880;50.986;6.990;2023-05-16T05:09:12;16.73;;;3.20;;
68089;SDS011;54880;50.986;6.990;2023-05-16T05:11:38;14.07;;;3.47;;
68089;SDS011;54880;50.986;6.990;2023-05-16T05:14:03;15.20;;;3.67;;
68089;SDS011;54880;50.986;6.990;2023-05-16T05:16:28;13.67;;;3.50;;
68089;SDS011;54880;50.986;6.990;2023-05-16T05:18:53;14.83;;;3.20;;
68089;SDS011;54880;50.986;6.990;2023-05-16T05:21:19;16.30;;;3.10;;
68089;SDS011;54880;50.986;6.990;2023-05-16T05:23:44;14.80;;;3.17;;
68089;SDS011;54880;50.986;6.990;2023-05-16T05:26:10;8.40;;;2.20;;
68089;SDS011;54880;50.986;6.990;2023-05-16T05:28:35;14.07;;;2.70;;
68089;SDS011;54880;50.986;6.990;2023-05-16T05:31:02;18.43;;;3.73;;
68089;SDS011;54880;50.986;6.990;2023-05-16T05:33:29;17.48;;;2.60;;
68089;SDS011;54880;50.986;6.990;2023-05-16T05:35:54;11.48;;;2.30;;
68089;SDS011;54880;50.986;6.990;2023-05-16T05:38:20;10.47;;;2.27;;
68089;SDS011;54880;50.986;6.990;2023-05-16T05:40:45;18.53;;;2.73;;
68089;SDS011;54880;50.986;6.990;2023-05-16T05:43:10;18.57;;;3.03;;
68089;SDS011;54880;50.986;6.990;2023-05-16T05:45:36;17.73;;;3.17;;
68089;SDS011;54880;50.986;6.990;2023-05-16T05:48:01;13.60;;;2.47;;
68089;SDS011;54880;50.986;6.990;2023-05-16T05:50:26;14.27;;;2.90;;
68089;SDS011;54880;50.986;6.990;2023-05-16T05:52:52;14.13;;;2.90;;
68089;SDS011;54880;50.986;6.990;2023-05-16T05:55:17;10.77;;;2.47;;
68089;SDS011;54880;50.986;6.990;2023-05-16T05:57:43;16.93;;;2.70;;
68089;SDS011;54880;50.986;6.990;2023-05-16T06:00:08;12.60;;;2.60;;
68089;SDS011;54880;50.986;6.990;2023-05-16T06:02:34;13.77;;;2.25;;
68089;SDS011;54880;50.986;6.990;2023-05-16T06:05:00;15.70;;;2.77;;
68089;SDS011;54880;50.986;6.990;2023-05-16T06:07:25;13.07;;;2.17;;
68089;SDS011;54880;50.986;6.990;2023-05-16T06:09:50;16.70;;;2.78;;
68089;SDS011;54880;50.986;6.990;2023-05-16T06:12:16;15.30;;;2.35;;
68089;SDS011;54880;50.986;6.990;2023-05-16T06:14:41;15.33;;;2.47;;
68089;SDS011;54880;50.986;6.990;2023-05-16T06:17:07;15.20;;;2.17;;
68089;SDS011;54880;50.986;6.990;2023-05-16T06:19:32;13.23;;;2.27;;
68089;SDS011;54880;50.986;6.990;2023-05-16T06:21:57;12.10;;;2.67;;
68089;SDS011;54880;50.986;6.990;2023-05-16T06:24:22;10.83;;;2.53;;
68089;SDS011;54880;50.986;6.990;2023-05-16T06:26:48;14.83;;;3.00;;
68089;SDS011;54880;50.986;6.990;2023-05-16T06:29:14;13.32;;;2.33;;
68089;SDS011;54880;50.986;6.990;2023-05-16T06:31:39;14.37;;;2.63;;
68089;SDS011;54880;50.986;6.990;2023-05-16T06:34:05;16.02;;;3.55;;
68089;SDS011;54880;50.986;6.990;2023-05-16T06:36:30;12.43;;;2.20;;
68089;SDS011;54880;50.986;6.990;2023-05-16T06:38:56;12.33;;;2.13;;
68089;SDS011;54880;50.986;6.990;2023-05-16T06:41:21;13.03;;;1.97;;
68089;SDS011;54880;50.986;6.990;2023-05-16T06:43:46;11.10;;;2.10;;
68089;SDS011;54880;50.986;6.990;2023-05-16T06:46:12;12.17;;;2.33;;
68089;SDS011;54880;50.986;6.990;2023-05-16T06:48:37;13.87;;;2.47;;
68089;SDS011;54880;50.986;6.990;2023-05-16T06:51:02;9.20;;;2.10;;
68089;SDS011;54880;50.986;6.990;2023-05-16T06:53:28;11.02;;;2.40;;
68089;SDS011;54880;50.986;6.990;2023-05-16T06:55:53;12.00;;;1.90;;
68089;SDS011;54880;50.986;6.990;2023-05-16T06:58:18;13.40;;;2.10;;
68089;SDS011;54880;50.986;6.990;2023-05-16T07:00:44;12.63;;;2.27;;
68089;SDS011;54880;50.986;6.990;2023-05-16T07:03:09;15.23;;;2.17;;
68089;SDS011;54880;50.986;6.990;2023-05-16T07:05:34;12.50;;;2.17;;
68089;SDS011;54880;50.986;6.990;2023-05-16T07:08:00;11.97;;;1.80;;
68089;SDS011;54880;50.986;6.990;2023-05-16T07:10:25;9.77;;;1.87;;
68089;SDS011;54880;50.986;6.990;2023-05-16T07:12:51;13.77;;;2.10;;
68089;SDS011;54880;50.986;6.990;2023-05-16T07:15:16;12.67;;;1.80;;
68089;SDS011;54880;50.986;6.990;2023-05-16T07:17:41;11.70;;;2.40;;
68089;SDS011;54880;50.986;6.990;2023-05-16T07:20:07;11.17;;;2.37;;
68089;SDS011;54880;50.986;6.990;2023-05-16T07:22:37;8.80;;;1.33;;
68089;SDS011;54880;50.986;6.990;2023-05-16T07:25:02;8.17;;;1.47;;
68089;SDS011;54880;50.986;6.990;2023-05-16T07:27:28;12.25;;;1.90;;
68089;SDS011;54880;50.986;6.990;2023-05-16T07:29:54;12.13;;;1.70;;
68089;SDS011;54880;50.986;6.990;2023-05-16T07:32:20;13.43;;;1.73;;
68089;SDS011;54880;50.986;6.990;2023-05-16T07:34:45;10.93;;;1.90;;
68089;SDS011;54880;50.986;6.990;2023-05-16T07:37:10;12.23;;;1.63;;
68089;SDS011;54880;50.986;6.990;2023-05-16T07:39:40;14.50;;;2.28;;
68089;SDS011;54880;50.986;6.990;2023-05-16T07:42:05;9.87;;;2.10;;
68089;SDS011;54880;50.986;6.990;2023-05-16T07:44:30;14.82;;;2.45;;
68089;SDS011;54880;50.986;6.990;2023-05-16T07:46:56;15.13;;;2.50;;
68089;SDS011;54880;50.986;6.990;2023-05-16T07:49:21;13.23;;;3.40;;
68089;SDS011;54880;50.986;6.990;2023-05-16T07:51:46;12.07;;;2.30;;
68089;SDS011;54880;50.986;6.990;2023-05-16T07:54:11;11.00;;;1.87;;
68089;SDS011;54880;50.986;6.990;2023-05-16T07:56:37;12.17;;;1.83;;
68089;SDS011;54880;50.986;6.990;2023-05-16T07:59:02;13.23;;;2.00;;
68089;SDS011;54880;50.986;6.990;2023-05-16T08:01:29;9.57;;;2.38;;
68089;SDS011;54880;50.986;6.990;2023-05-16T08:03:55;7.57;;;1.30;;
68089;SDS011;54880;50.986;6.990;2023-05-16T08:06:20;11.63;;;1.80;;
68089;SDS011;54880;50.986;6.990;2023-05-16T08:08:45;9.33;;;1.73;;
68089;SDS011;54880;50.986;6.990;2023-05-16T08:11:10;15.23;;;1.80;;
68089;SDS011;54880;50.986;6.990;2023-05-16T08:13:36;8.80;;;1.70;;
68089;SDS011;54880;50.986;6.990;2023-05-16T08:16:01;15.93;;;1.87;;
68089;SDS011;54880;50.986;6.990;2023-05-16T08:18:26;11.40;;;2.13;;
68089;SDS011;54880;50.986;6.990;2023-05-16T08:20:51;14.47;;;2.30;;
68089;SDS011;54880;50.986;6.990;2023-05-16T08:23:17;9.53;;;1.87;;
68089;SDS011;54880;50.986;6.990;2023-05-16T08:25:42;10.00;;;1.80;;
68089;SDS011;54880;50.986;6.990;2023-05-16T08:28:08;9.30;;;1.63;;
68089;SDS011;54880;50.986;6.990;2023-05-16T08:30:33;8.13;;;1.60;;
68089;SDS011;54880;50.986;6.990;2023-05-16T08:32:58;8.17;;;1.43;;
68089;SDS011;54880;50.986;6.990;2023-05-16T08:35:28;10.80;;;1.80;;
68089;SDS011;54880;50.986;6.990;2023-05-16T08:37:53;7.60;;;1.87;;
68089;SDS011;54880;50.986;6.990;2023-05-16T08:40:19;7.50;;;1.88;;
68089;SDS011;54880;50.986;6.990;2023-05-16T08:42:44;9.25;;;2.35;;
68089;SDS011;54880;50.986;6.990;2023-05-16T08:45:10;11.53;;;2.47;;
68089;SDS011;54880;50.986;6.990;2023-05-16T08:47:35;10.40;;;2.00;;
68089;SDS011;54880;50.986;6.990;2023-05-16T08:50:05;9.02;;;2.42;;
68089;SDS011;54880;50.986;6.990;2023-05-16T08:52:31;8.80;;;1.77;;
68089;SDS011;54880;50.986;6.990;2023-05-16T08:55:01;8.37;;;1.77;;
68089;SDS011;54880;50.986;6.990;2023-05-16T08:57:26;14.80;;;1.80;;
68089;SDS011;54880;50.986;6.990;2023-05-16T08:59:52;8.10;;;1.77;;
68089;SDS011;54880;50.986;6.990;2023-05-16T09:02:20;8.25;;;1.67;;
68089;SDS011;54880;50.986;6.990;2023-05-16T09:04:46;10.87;;;1.77;;
68089;SDS011;54880;50.986;6.990;2023-05-16T09:07:11;7.55;;;1.65;;
68089;SDS011;54880;50.986;6.990;2023-05-16T09:09:37;8.07;;;1.70;;
68089;SDS011;54880;50.986;6.990;2023-05-16T09:12:02;9.53;;;1.67;;
68089;SDS011;54880;50.986;6.990;2023-05-16T09:14:28;9.00;;;1.77;;
68089;SDS011;54880;50.986;6.990;2023-05-16T09:17:03;12.23;;;1.85;;
68089;SDS011;54880;50.986;6.990;2023-05-16T09:19:47;11.00;;;1.70;;
68089;SDS011;54880;50.986;6.990;2023-05-16T09:22:17;12.88;;;2.20;;
68089;SDS011;54880;50.986;6.990;2023-05-16T09:24:43;9.77;;;2.10;;
68089;SDS011;54880;50.986;6.990;2023-05-16T09:27:09;8.63;;;2.40;;
68089;SDS011;54880;50.986;6.990;2023-05-16T09:29:34;11.07;;;2.28;;
68089;SDS011;54880;50.986;6.990;2023-05-16T09:32:03;13.40;;;2.65;;
68089;SDS011;54880;50.986;6.990;2023-05-16T09:34:29;11.10;;;2.50;;
68089;SDS011;54880;50.986;6.990;2023-05-16T09:36:54;9.63;;;2.23;;
68089;SDS011;54880;50.986;6.990;2023-05-16T09:39:19;10.40;;;2.47;;
68089;SDS011;54880;50.986;6.990;2023-05-16T09:41:45;10.80;;;2.08;;
68089;SDS011;54880;50.986;6.990;2023-05-16T09:44:10;9.90;;;2.17;;
68089;SDS011;54880;50.986;6.990;2023-05-16T09:46:36;8.77;;;2.10;;
68089;SDS011;54880;50.986;6.990;2023-05-16T09:49:02;7.80;;;2.30;;
68089;SDS011;54880;50.986;6.990;2023-05-16T09:51:27;7.97;;;2.40;;
68089;SDS011;54880;50.986;6.990;2023-05-16T09:53:52;8.10;;;2.08;;
68089;SDS011;54880;50.986;6.990;2023-05-16T09:56:18;7.43;;;1.80;;
68089;SDS011;54880;50.986;6.990;2023-05-16T09:58:43;8.53;;;2.00;;
68089;SDS011;54880;50.986;6.990;2023-05-16T10:01:09;11.13;;;2.43;;
68089;SDS011;54880;50.986;6.990;2023-05-16T10:03:35;10.23;;;2.05;;
68089;SDS011;54880;50.986;6.990;2023-05-16T10:06:01;7.38;;;2.10;;
68089;SDS011;54880;50.986;6.990;2023-05-16T10:08:27;11.73;;;2.00;;
68089;SDS011;54880;50.986;6.990;2023-05-16T10:10:55;10.07;;;1.87;;
68089;SDS011;54880;50.986;6.990;2023-05-16T10:13:27;12.10;;;2.40;;
68089;SDS011;54880;50.986;6.990;2023-05-16T10:15:54;9.25;;;2.22;;
68089;SDS011;54880;50.986;6.990;2023-05-16T10:18:20;8.45;;;2.00;;
68089;SDS011;54880;50.986;6.990;2023-05-16T10:20:46;7.63;;;2.07;;
68089;SDS011;54880;50.986;6.990;2023-05-16T10:23:18;7.90;;;1.77;;
68089;SDS011;54880;50.986;6.990;2023-05-16T10:25:45;8.50;;;2.00;;
68089;SDS011;54880;50.986;6.990;2023-05-16T10:28:11;8.90;;;2.08;;
68089;SDS011;54880;50.986;6.990;2023-05-16T10:30:38;7.68;;;1.90;;
68089;SDS011;54880;50.986;6.990;2023-05-16T10:33:04;10.50;;;2.53;;
68089;SDS011;54880;50.986;6.990;2023-05-16T10:35:30;5.90;;;1.80;;
68089;SDS011;54880;50.986;6.990;2023-05-16T10:37:55;7.07;;;1.80;;
68089;SDS011;54880;50.986;6.990;2023-05-16T10:40:21;7.80;;;1.67;;
68089;SDS011;54880;50.986;6.990;2023-05-16T10:42:59;6.28;;;1.60;;
68089;SDS011;54880;50.986;6.990;2023-05-16T10:45:25;11.40;;;2.00;;
68089;SDS011;54880;50.986;6.990;2023-05-16T10:47:51;8.07;;;1.92;;
68089;SDS011;54880;50.986;6.990;2023-05-16T10:56:05;7.97;;;2.03;;
68089;SDS011;54880;50.986;6.990;2023-05-16T11:06:23;4.78;;;1.17;;
68089;SDS011;54880;50.986;6.990;2023-05-16T11:11:38;7.20;;;1.83;;
68089;SDS011;54880;50.986;6.990;2023-05-16T11:14:03;8.10;;;1.50;;
68089;SDS011;54880;50.986;6.990;2023-05-16T11:16:28;7.97;;;1.60;;
68089;SDS011;54880;50.986;6.990;2023-05-16T11:18:54;6.47;;;1.23;;
68089;SDS011;54880;50.986;6.990;2023-05-16T11:22:03;6.65;;;1.33;;
68089;SDS011;54880;50.986;6.990;2023-05-16T11:24:29;8.47;;;1.53;;
68089;SDS011;54880;50.986;6.990;2023-05-16T11:26:54;7.65;;;1.27;;
68089;SDS011;54880;50.986;6.990;2023-05-16T11:29:20;5.90;;;1.30;;
68089;SDS011;54880;50.986;6.990;2023-05-16T11:31:46;8.45;;;1.38;;
68089;SDS011;54880;50.986;6.990;2023-05-16T11:34:12;7.75;;;1.77;;
68089;SDS011;54880;50.986;6.990;2023-05-16T11:36:37;10.80;;;2.27;;
68089;SDS011;54880;50.986;6.990;2023-05-16T11:39:05;6.80;;;1.83;;
68089;SDS011;54880;50.986;6.990;2023-05-16T11:41:30;8.63;;;2.10;;
68089;SDS011;54880;50.986;6.990;2023-05-16T11:43:56;10.82;;;1.77;;
68089;SDS011;54880;50.986;6.990;2023-05-16T11:46:21;9.17;;;2.10;;
68089;SDS011;54880;50.986;6.990;2023-05-16T11:48:47;8.47;;;1.40;;
68089;SDS011;54880;50.986;6.990;2023-05-16T11:51:12;8.97;;;1.93;;
68089;SDS011;54880;50.986;6.990;2023-05-16T11:53:42;8.57;;;1.83;;
68089;SDS011;54880;50.986;6.990;2023-05-16T11:56:08;11.65;;;2.28;;
68089;SDS011;54880;50.986;6.990;2023-05-16T11:58:34;9.30;;;1.90;;
68089;SDS011;54880;50.986;6.990;2023-05-16T12:01:02;8.82;;;1.80;;
68089;SDS011;54880;50.986;6.990;2023-05-16T12:03:28;7.97;;;1.90;;
68089;SDS011;54880;50.986;6.990;2023-05-16T12:05:57;8.40;;;2.00;;
68089;SDS011;54880;50.986;6.990;2023-05-16T12:08:23;9.55;;;2.15;;
68089;SDS011;54880;50.986;6.990;2023-05-16T12:10:51;8.57;;;1.88;;
68089;SDS011;54880;50.986;6.990;2023-05-16T12:13:17;8.43;;;2.17;;
68089;SDS011;54880;50.986;6.990;2023-05-16T12:15:43;10.93;;;1.95;;
68089;SDS011;54880;50.986;6.990;2023-05-16T12:18:08;9.23;;;2.10;;
68089;SDS011;54880;50.986;6.990;2023-05-16T12:20:34;9.40;;;1.90;;
68089;SDS011;54880;50.986;6.990;2023-05-16T12:22:59;9.50;;;1.93;;
68089;SDS011;54880;50.986;6.990;2023-05-16T12:25:25;11.60;;;2.10;;
68089;SDS011;54880;50.986;6.990;2023-05-16T12:27:54;8.85;;;1.80;;
68089;SDS011;54880;50.986;6.990;2023-05-16T12:30:21;7.10;;;1.30;;
68089;SDS011;54880;50.986;6.990;2023-05-16T12:32:57;7.28;;;1.67;;
68089;SDS011;54880;50.986;6.990;2023-05-16T12:35:32;6.57;;;1.50;;
68089;SDS011;54880;50.986;6.990;2023-05-16T12:37:57;5.70;;;1.05;;
68089;SDS011;54880;50.986;6.990;2023-05-16T12:40:23;5.63;;;1.40;;
68089;SDS011;54880;50.986;6.990;2023-05-16T12:42:54;6.35;;;1.30;;
68089;SDS011;54880;50.986;6.990;2023-05-16T12:45:23;7.72;;;1.38;;
68089;SDS011;54880;50.986;6.990;2023-05-16T12:47:48;8.73;;;1.55;;
68089;SDS011;54880;50.986;6.990;2023-05-16T12:50:14;8.53;;;1.43;;
68089;SDS011;54880;50.986;6.990;2023-05-16T12:55:19;4.38;;;1.10;;
68089;SDS011;54880;50.986;6.990;2023-05-16T12:57:45;5.15;;;0.90;;
68089;SDS011;54880;50.986;6.990;2023-05-16T13:00:12;5.15;;;1.10;;
68089;SDS011;54880;50.986;6.990;2023-05-16T13:02:37;8.20;;;1.67;;
68089;SDS011;54880;50.986;6.990;2023-05-16T13:05:03;6.33;;;1.63;;
68089;SDS011;54880;50.986;6.990;2023-05-16T13:07:28;6.22;;;1.17;;
68089;SDS011;54880;50.986;6.990;2023-05-16T13:09:54;8.07;;;1.50;;
68089;SDS011;54880;50.986;6.990;2023-05-16T13:12:20;6.53;;;1.38;;
68089;SDS011;54880;50.986;6.990;2023-05-16T13:14:46;6.90;;;1.83;;
68089;SDS011;54880;50.986;6.990;2023-05-16T13:17:11;6.13;;;1.57;;
68089;SDS011;54880;50.986;6.990;2023-05-16T13:19:37;7.93;;;1.33;;
68089;SDS011;54880;50.986;6.990;2023-05-16T13:22:03;6.82;;;1.38;;
68089;SDS011;54880;50.986;6.990;2023-05-16T13:24:28;7.83;;;1.60;;
68089;SDS011;54880;50.986;6.990;2023-05-16T13:26:53;5.10;;;1.20;;
68089;SDS011;54880;50.986;6.990;2023-05-16T13:29:18;5.07;;;1.33;;
68089;SDS011;54880;50.986;6.990;2023-05-16T13:31:44;5.80;;;1.30;;
68089;SDS011;54880;50.986;6.990;2023-05-16T13:34:09;9.07;;;1.47;;
68089;SDS011;54880;50.986;6.990;2023-05-16T13:36:34;4.57;;;1.23;;
68089;SDS011;54880;50.986;6.990;2023-05-16T13:39:00;9.47;;;1.60;;
68089;SDS011;54880;50.986;6.990;2023-05-16T13:41:26;6.10;;;1.20;;
68089;SDS011;54880;50.986;6.990;2023-05-16T13:43:51;4.53;;;1.10;;
68089;SDS011;54880;50.986;6.990;2023-05-16T13:46:16;5.67;;;1.20;;
68089;SDS011;54880;50.986;6.990;2023-05-16T13:48:41;9.70;;;1.70;;
68089;SDS011;54880;50.986;6.990;2023-05-16T13:51:07;5.87;;;1.30;;
68089;SDS011;54880;50.986;6.990;2023-05-16T13:53:32;4.63;;;1.00;;
68089;SDS011;54880;50.986;6.990;2023-05-16T13:55:57;5.83;;;1.27;;
68089;SDS011;54880;50.986;6.990;2023-05-16T13:58:23;5.90;;;1.30;;
68089;SDS011;54880;50.986;6.990;2023-05-16T14:00:48;6.82;;;1.25;;
68089;SDS011;54880;50.986;6.990;2023-05-16T14:03:14;5.40;;;1.03;;
68089;SDS011;54880;50.986;6.990;2023-05-16T14:05:39;5.57;;;1.40;;
68089;SDS011;54880;50.986;6.990;2023-05-16T14:08:05;6.83;;;1.47;;
68089;SDS011;54880;50.986;6.990;2023-05-16T14:10:30;7.05;;;1.20;;
68089;SDS011;54880;50.986;6.990;2023-05-16T14:12:55;6.13;;;1.10;;
68089;SDS011;54880;50.986;6.990;2023-05-16T14:15:21;4.90;;;1.30;;
68089;SDS011;54880;50.986;6.990;2023-05-16T14:17:46;4.60;;;1.20;;
68089;SDS011;54880;50.986;6.990;2023-05-16T14:20:11;6.07;;;1.03;;
68089;SDS011;54880;50.986;6.990;2023-05-16T14:22:39;7.83;;;1.50;;
68089;SDS011;54880;50.986;6.990;2023-05-16T14:25:05;4.70;;;1.02;;
68089;SDS011;54880;50.986;6.990;2023-05-16T14:27:30;8.57;;;1.50;;
68089;SDS011;54880;50.986;6.990;2023-05-16T14:29:55;4.10;;;1.17;;
68089;SDS011;54880;50.986;6.990;2023-05-16T14:32:21;6.00;;;1.17;;
68089;SDS011;54880;50.986;6.990;2023-05-16T14:34:46;5.23;;;1.17;;
68089;SDS011;54880;50.986;6.990;2023-05-16T14:37:12;8.33;;;1.30;;
68089;SDS011;54880;50.986;6.990;2023-05-16T14:39:38;6.65;;;1.30;;
68089;SDS011;54880;50.986;6.990;2023-05-16T14:42:03;5.30;;;1.27;;
68089;SDS011;54880;50.986;6.990;2023-05-16T14:44:29;6.90;;;1.53;;
68089;SDS011;54880;50.986;6.990;2023-05-16T14:46:54;5.60;;;1.43;;
68089;SDS011;54880;50.986;6.990;2023-05-16T14:49:19;8.07;;;1.60;;
68089;SDS011;54880;50.986;6.990;2023-05-16T14:51:48;8.95;;;1.50;;
68089;SDS011;54880;50.986;6.990;2023-05-16T14:54:15;7.18;;;1.55;;
68089;SDS011;54880;50.986;6.990;2023-05-16T14:56:41;6.40;;;1.60;;
68089;SDS011;54880;50.986;6.990;2023-05-16T14:59:06;8.17;;;1.80;;